Arethusa — 9HJR9 — position and weather

sailwx.info

Track history (hours):
 
Tides and Currents Weather Stations Pressure Air Temp Water Temp Dewpoint Dewpoint Depression Visibility Wind Speed Wind Dir Waves Ship Positions

Arethusa

Last reported at 2014-Oct-26 02:32 UTC. Time now 2014-Oct-26 03:07 UTC.
Position N 43°42' E 007°17'.

Length 60 m; draft 3 m.

Type: Passenger vessel. MMSI: 249069000.

Date/timePositionNaut miles runAvg speedWind from/ knotsBaromVisibWave heightAir tempDewpointWater temp
2014-Oct-26 02:32N 43°42' E 007°17'0 0.0
2014-Oct-26 01:32N 43°42' E 007°17'0 0.0
2014-Oct-26 00:32N 43°42' E 007°17'0 0.0
2014-Oct-25 23:32N 43°42' E 007°17'0 0.0
2014-Oct-25 22:32N 43°42' E 007°17'0 0.0
2014-Oct-25 21:32N 43°42' E 007°17'0 0.0
2014-Oct-25 20:32N 43°42' E 007°17'0 0.0
2014-Oct-25 19:32N 43°42' E 007°17'0 0.0
2014-Oct-25 18:32N 43°42' E 007°17'0 0.0
2014-Oct-25 17:32N 43°42' E 007°17'0 0.0
2014-Oct-25 16:32N 43°42' E 007°17'0 0.0
2014-Oct-25 14:32N 43°42' E 007°17'0 0.0
2014-Oct-25 13:32N 43°42' E 007°17'0 0.0
2014-Oct-25 12:32N 43°42' E 007°17'0 0.0
2014-Oct-25 11:33N 43°42' E 007°17'0 0.0
2014-Oct-25 10:33N 43°42' E 007°17'0 0.0
2014-Oct-25 09:31N 43°42' E 007°17'0 0.0
2014-Oct-25 08:31N 43°42' E 007°17'0 0.0
2014-Oct-25 07:33N 43°42' E 007°17'0 0.0
2014-Oct-25 06:33N 43°42' E 007°17'0 0.0
2014-Oct-25 05:33N 43°42' E 007°17'1 0.8
2014-Oct-25 04:33N 43°41' E 007°17'6 5.9
2014-Oct-25 03:32N 43°41' E 007°25'69 9.8
2014-Oct-24 20:33N 44°07' E 008°53'9 9.5
2014-Oct-24 19:34N 44°11' E 009°05'10 9.5
2014-Oct-24 18:33N 44°16' E 009°16'2 0.1
2014-Oct-24 02:10N 44°18' E 009°16'5 7.0
2014-Oct-24 01:30N 44°15' E 009°21'8 8.2
2014-Oct-24 00:33N 44°10' E 009°29'8 8.0
2014-Oct-23 23:33N 44°04' E 009°37'8 7.8
2014-Oct-23 22:33N 44°00' E 009°46'9 9.0
2014-Oct-23 21:33N 44°01' E 009°58'3 2.7
2014-Oct-23 20:26N 44°02' E 010°02'0 0.0
2014-Oct-23 19:26N 44°02' E 010°02'0 0.0
2014-Oct-23 18:32N 44°02' E 010°02'0 0.0
2014-Oct-23 17:26N 44°02' E 010°02'0 0.0
2014-Oct-23 16:26N 44°02' E 010°02'0 0.0
2014-Oct-23 15:08N 44°02' E 010°02'0 0.0
2014-Oct-23 13:20N 44°02' E 010°02'0 0.0
2014-Oct-23 12:32N 44°02' E 010°02'0 0.0
2014-Oct-23 10:32N 44°02' E 010°02'0 0.0
2014-Oct-23 09:23N 44°02' E 010°02'0 0.0
2014-Oct-23 08:29N 44°02' E 010°02'0 0.0
2014-Oct-23 07:29N 44°02' E 010°02'0 0.0
2014-Oct-23 06:29N 44°02' E 010°02'0 0.0
2014-Oct-23 05:23N 44°02' E 010°02'0 0.0
2014-Oct-23 04:32N 44°02' E 010°02'0 0.0
2014-Oct-23 03:29N 44°02' E 010°02'0 0.0
2014-Oct-23 02:29N 44°02' E 010°02'0 0.0
2014-Oct-23 01:32N 44°02' E 010°02'0 0.0
2014-Oct-22 22:08N 44°02' E 010°02'0 0.0
2014-Oct-22 21:29N 44°02' E 010°02'0 0.0
2014-Oct-22 19:32N 44°02' E 010°02'0 0.0
2014-Oct-22 18:23N 44°02' E 010°02'0 0.0
2014-Oct-22 16:29N 44°02' E 010°02'0 0.0
2014-Oct-22 15:32N 44°02' E 010°02'0 0.0
2014-Oct-22 14:33N 44°02' E 010°02'0 0.0
2014-Oct-22 13:33N 44°02' E 010°02'0 0.0
2014-Oct-22 12:33N 44°02' E 010°02'0 0.0
2014-Oct-22 11:33N 44°02' E 010°02'0 0.0
2014-Oct-22 10:33N 44°02' E 010°02'0 0.0
2014-Oct-22 09:32N 44°02' E 010°02'0 0.0
2014-Oct-22 08:33N 44°02' E 010°02'0 0.0
2014-Oct-22 07:33N 44°02' E 010°02'0 0.0
2014-Oct-22 06:32N 44°02' E 010°02'0 0.0
2014-Oct-22 05:33N 44°02' E 010°02'0 0.0
2014-Oct-22 04:33N 44°02' E 010°02'0 0.0
2014-Oct-22 03:33N 44°02' E 010°02'0 0.0
2014-Oct-22 02:33N 44°02' E 010°02'0 0.0
2014-Oct-22 01:33N 44°02' E 010°02'0 0.0
2014-Oct-22 00:33N 44°02' E 010°02'0 0.0
2014-Oct-21 23:33N 44°02' E 010°02'0 0.0
2014-Oct-21 22:33N 44°02' E 010°02'0 0.0
2014-Oct-21 21:33N 44°02' E 010°02'0 0.0
2014-Oct-21 20:33N 44°02' E 010°02'0 0.0
2014-Oct-21 19:33N 44°02' E 010°02'0 0.0
2014-Oct-21 18:33N 44°02' E 010°02'0 0.0
2014-Oct-21 17:33N 44°02' E 010°02'0 0.0
2014-Oct-21 16:33N 44°02' E 010°02'0 0.0
2014-Oct-21 15:33N 44°02' E 010°02'0 0.0
2014-Oct-21 14:33N 44°02' E 010°02'0 0.0
2014-Oct-21 13:33N 44°02' E 010°02'0 0.0
2014-Oct-21 12:33N 44°02' E 010°02'0 0.0
2014-Oct-21 11:33N 44°02' E 010°02'0 0.0
2014-Oct-21 10:33N 44°02' E 010°02'0 0.0
2014-Oct-21 09:33N 44°02' E 010°02'0 0.0
2014-Oct-21 08:33N 44°02' E 010°02'0 0.0
2014-Oct-21 07:33N 44°02' E 010°02'0 0.0
2014-Oct-21 06:33N 44°02' E 010°02'0 0.0
2014-Oct-21 05:33N 44°02' E 010°02'0 0.0
2014-Oct-21 04:33N 44°02' E 010°02'0 0.0
2014-Oct-21 03:33N 44°02' E 010°02'0 0.0
2014-Oct-21 02:33N 44°02' E 010°02'0 0.0
2014-Oct-21 01:33N 44°02' E 010°02'0 0.0
2014-Oct-21 00:33N 44°02' E 010°02'0 0.0
2014-Oct-20 23:33N 44°02' E 010°02'0 0.0
2014-Oct-20 22:33N 44°02' E 010°02'0 0.0
2014-Oct-20 21:33N 44°02' E 010°02'3 2.8
2014-Oct-20 20:33N 43°59' E 010°03'10 9.9
2014-Oct-20 19:33N 43°49' E 010°04'10 9.8
2014-Oct-20 18:33N 43°40' E 010°05'10 9.7
2014-Oct-20 17:33N 43°30' E 010°06'10 9.8
2014-Oct-20 16:33N 43°21' E 010°10'33 1.9
2014-Oct-19 23:22N 42°49' E 010°20'0 0.0
2014-Oct-19 22:25N 42°49' E 010°20'0 0.0
2014-Oct-19 21:33N 42°49' E 010°20'0 0.0
2014-Oct-19 20:33N 42°49' E 010°20'0 0.0
2014-Oct-19 19:33N 42°49' E 010°20'7 7.0
2014-Oct-19 18:33N 42°55' E 010°19'1010.5
2014-Oct-19 17:33N 43°06' E 010°17'1010.4
2014-Oct-19 16:33N 43°16' E 010°15'10 9.9
2014-Oct-19 15:33N 43°26' E 010°13'8 8.0
2014-Oct-19 14:33N 43°33' E 010°18'0 0.1
2014-Oct-19 12:32N 43°33' E 010°18'0 0.0
2014-Oct-19 11:26N 43°33' E 010°18'0 0.0
2014-Oct-19 10:05N 43°33' E 010°18'0 0.0
2014-Oct-19 09:20N 43°33' E 010°18'0 0.0
2014-Oct-19 08:26N 43°33' E 010°18'0 0.0
2014-Oct-19 07:29N 43°33' E 010°18'0 0.0
2014-Oct-19 06:23N 43°33' E 010°18'0 0.0
2014-Oct-19 05:23N 43°33' E 010°18'0 0.0
2014-Oct-19 04:32N 43°33' E 010°18'0 0.0
2014-Oct-19 03:32N 43°33' E 010°18'0 0.0
2014-Oct-19 02:26N 43°33' E 010°18'0 0.0
2014-Oct-19 01:32N 43°33' E 010°18'0 0.0
2014-Oct-19 00:32N 43°33' E 010°18'0 0.0
2014-Oct-18 23:32N 43°33' E 010°18'0 0.0
2014-Oct-18 22:32N 43°33' E 010°18'4 4.5
2014-Oct-18 21:34N 43°30' E 010°14'10 9.9
2014-Oct-18 20:33N 43°20' E 010°15'10 9.9
2014-Oct-18 19:33N 43°10' E 010°17'12 0.7
2014-Oct-18 01:33N 43°21' E 010°09'9 9.2
2014-Oct-18 00:33N 43°30' E 010°06'9 9.3
2014-Oct-17 23:33N 43°39' E 010°05'9 9.4
2014-Oct-17 22:33N 43°49' E 010°04'9 8.9
2014-Oct-17 21:33N 43°58' E 010°03'5 4.5
2014-Oct-17 20:32N 44°02' E 010°02'0 0.0
2014-Oct-17 19:29N 44°02' E 010°02'0 0.0
2014-Oct-17 18:29N 44°02' E 010°02'0 0.0
2014-Oct-17 17:32N 44°02' E 010°02'0 0.0
2014-Oct-17 16:29N 44°02' E 010°02'0 0.0
2014-Oct-17 15:32N 44°02' E 010°02'0 0.0
2014-Oct-17 14:32N 44°02' E 010°02'0 0.0
2014-Oct-17 13:26N 44°02' E 010°02'0 0.0
2014-Oct-17 12:32N 44°02' E 010°02'0 0.0
2014-Oct-17 11:26N 44°02' E 010°02'0 0.0
2014-Oct-17 10:32N 44°02' E 010°02'0 0.0
2014-Oct-17 09:32N 44°02' E 010°02'0 0.0
2014-Oct-17 08:32N 44°02' E 010°02'0 0.0
2014-Oct-17 07:32N 44°02' E 010°02'0 0.0
2014-Oct-17 06:29N 44°02' E 010°02'0 0.0
2014-Oct-17 05:32N 44°02' E 010°02'0 0.0
2014-Oct-17 04:32N 44°02' E 010°02'0 0.0
2014-Oct-17 03:32N 44°02' E 010°02'0 0.0
2014-Oct-17 02:32N 44°02' E 010°02'0 0.0
2014-Oct-17 01:32N 44°02' E 010°02'0 0.0
2014-Oct-17 00:32N 44°02' E 010°02'0 0.0
2014-Oct-16 23:32N 44°02' E 010°02'0 0.0
2014-Oct-16 22:32N 44°02' E 010°02'0 0.0
2014-Oct-16 21:29N 44°02' E 010°02'0 0.0
2014-Oct-16 20:32N 44°02' E 010°02'0 0.0
2014-Oct-16 19:32N 44°02' E 010°02'0 0.0
2014-Oct-16 18:32N 44°02' E 010°02'0 0.0
2014-Oct-16 17:32N 44°02' E 010°02'0 0.0
2014-Oct-16 16:29N 44°02' E 010°02'0 0.0
2014-Oct-16 15:32N 44°02' E 010°02'0 0.0
2014-Oct-16 14:32N 44°02' E 010°02'0 0.0
2014-Oct-16 13:29N 44°02' E 010°02'0 0.0
2014-Oct-16 12:32N 44°02' E 010°02'0 0.0
2014-Oct-16 11:32N 44°02' E 010°02'0 0.0
2014-Oct-16 10:32N 44°02' E 010°02'0 0.0
2014-Oct-16 09:32N 44°02' E 010°02'0 0.0
2014-Oct-16 08:32N 44°02' E 010°02'0 0.0
2014-Oct-16 07:32N 44°02' E 010°02'0 0.0
2014-Oct-16 06:32N 44°02' E 010°02'0 0.0
2014-Oct-16 05:32N 44°02' E 010°02'4 3.7
2014-Oct-16 04:33N 44°01' E 009°58'5 5.4
2014-Oct-16 03:33N 44°03' E 009°51'0 0.0
2014-Oct-16 02:33N 44°03' E 009°51'  
Track history (hours):
 
Tides and Currents Weather Stations Pressure Air Temp Water Temp Dewpoint Dewpoint Depression Visibility Wind Speed Wind Dir Waves Ship Positions

Arethusa

Last reported at 2014-Oct-26 02:32 UTC. Time now 2014-Oct-26 03:07 UTC.
Position N 43°42' E 007°17'.

Length 60 m; draft 3 m.

Type: Passenger vessel. MMSI: 249069000.

Date/timePositionNaut miles runAvg speedWind from/ knotsBaromVisibWave heightAir tempDewpointWater temp
2014-Oct-26 02:32N 43°42' E 007°17'0 0.0
2014-Oct-26 01:32N 43°42' E 007°17'0 0.0
2014-Oct-26 00:32N 43°42' E 007°17'0 0.0
2014-Oct-25 23:32N 43°42' E 007°17'0 0.0
2014-Oct-25 22:32N 43°42' E 007°17'0 0.0
2014-Oct-25 21:32N 43°42' E 007°17'0 0.0
2014-Oct-25 20:32N 43°42' E 007°17'0 0.0
2014-Oct-25 19:32N 43°42' E 007°17'0 0.0
2014-Oct-25 18:32N 43°42' E 007°17'0 0.0
2014-Oct-25 17:32N 43°42' E 007°17'0 0.0
2014-Oct-25 16:32N 43°42' E 007°17'0 0.0
2014-Oct-25 14:32N 43°42' E 007°17'0 0.0
2014-Oct-25 13:32N 43°42' E 007°17'0 0.0
2014-Oct-25 12:32N 43°42' E 007°17'0 0.0
2014-Oct-25 11:33N 43°42' E 007°17'0 0.0
2014-Oct-25 10:33N 43°42' E 007°17'0 0.0
2014-Oct-25 09:31N 43°42' E 007°17'0 0.0
2014-Oct-25 08:31N 43°42' E 007°17'0 0.0
2014-Oct-25 07:33N 43°42' E 007°17'0 0.0
2014-Oct-25 06:33N 43°42' E 007°17'0 0.0
2014-Oct-25 05:33N 43°42' E 007°17'1 0.8
2014-Oct-25 04:33N 43°41' E 007°17'6 5.9
2014-Oct-25 03:32N 43°41' E 007°25'69 9.8
2014-Oct-24 20:33N 44°07' E 008°53'9 9.5
2014-Oct-24 19:34N 44°11' E 009°05'10 9.5
2014-Oct-24 18:33N 44°16' E 009°16'2 0.1
2014-Oct-24 02:10N 44°18' E 009°16'5 7.0
2014-Oct-24 01:30N 44°15' E 009°21'8 8.2
2014-Oct-24 00:33N 44°10' E 009°29'8 8.0
2014-Oct-23 23:33N 44°04' E 009°37'8 7.8
2014-Oct-23 22:33N 44°00' E 009°46'9 9.0
2014-Oct-23 21:33N 44°01' E 009°58'3 2.7
2014-Oct-23 20:26N 44°02' E 010°02'0 0.0
2014-Oct-23 19:26N 44°02' E 010°02'0 0.0
2014-Oct-23 18:32N 44°02' E 010°02'0 0.0
2014-Oct-23 17:26N 44°02' E 010°02'0 0.0
2014-Oct-23 16:26N 44°02' E 010°02'0 0.0
2014-Oct-23 15:08N 44°02' E 010°02'0 0.0
2014-Oct-23 13:20N 44°02' E 010°02'0 0.0
2014-Oct-23 12:32N 44°02' E 010°02'0 0.0
2014-Oct-23 10:32N 44°02' E 010°02'0 0.0
2014-Oct-23 09:23N 44°02' E 010°02'0 0.0
2014-Oct-23 08:29N 44°02' E 010°02'0 0.0
2014-Oct-23 07:29N 44°02' E 010°02'0 0.0
2014-Oct-23 06:29N 44°02' E 010°02'0 0.0
2014-Oct-23 05:23N 44°02' E 010°02'0 0.0
2014-Oct-23 04:32N 44°02' E 010°02'0 0.0
2014-Oct-23 03:29N 44°02' E 010°02'0 0.0
2014-Oct-23 02:29N 44°02' E 010°02'0 0.0
2014-Oct-23 01:32N 44°02' E 010°02'0 0.0
2014-Oct-22 22:08N 44°02' E 010°02'0 0.0
2014-Oct-22 21:29N 44°02' E 010°02'0 0.0
2014-Oct-22 19:32N 44°02' E 010°02'0 0.0
2014-Oct-22 18:23N 44°02' E 010°02'0 0.0
2014-Oct-22 16:29N 44°02' E 010°02'0 0.0
2014-Oct-22 15:32N 44°02' E 010°02'0 0.0
2014-Oct-22 14:33N 44°02' E 010°02'0 0.0
2014-Oct-22 13:33N 44°02' E 010°02'0 0.0
2014-Oct-22 12:33N 44°02' E 010°02'0 0.0
2014-Oct-22 11:33N 44°02' E 010°02'0 0.0
2014-Oct-22 10:33N 44°02' E 010°02'0 0.0
2014-Oct-22 09:32N 44°02' E 010°02'0 0.0
2014-Oct-22 08:33N 44°02' E 010°02'0 0.0
2014-Oct-22 07:33N 44°02' E 010°02'0 0.0
2014-Oct-22 06:32N 44°02' E 010°02'0 0.0
2014-Oct-22 05:33N 44°02' E 010°02'0 0.0
2014-Oct-22 04:33N 44°02' E 010°02'0 0.0
2014-Oct-22 03:33N 44°02' E 010°02'0 0.0
2014-Oct-22 02:33N 44°02' E 010°02'0 0.0
2014-Oct-22 01:33N 44°02' E 010°02'0 0.0
2014-Oct-22 00:33N 44°02' E 010°02'0 0.0
2014-Oct-21 23:33N 44°02' E 010°02'0 0.0
2014-Oct-21 22:33N 44°02' E 010°02'0 0.0
2014-Oct-21 21:33N 44°02' E 010°02'0 0.0
2014-Oct-21 20:33N 44°02' E 010°02'0 0.0
2014-Oct-21 19:33N 44°02' E 010°02'0 0.0
2014-Oct-21 18:33N 44°02' E 010°02'0 0.0
2014-Oct-21 17:33N 44°02' E 010°02'0 0.0
2014-Oct-21 16:33N 44°02' E 010°02'0 0.0
2014-Oct-21 15:33N 44°02' E 010°02'0 0.0
2014-Oct-21 14:33N 44°02' E 010°02'0 0.0
2014-Oct-21 13:33N 44°02' E 010°02'0 0.0
2014-Oct-21 12:33N 44°02' E 010°02'0 0.0
2014-Oct-21 11:33N 44°02' E 010°02'0 0.0
2014-Oct-21 10:33N 44°02' E 010°02'0 0.0
2014-Oct-21 09:33N 44°02' E 010°02'0 0.0
2014-Oct-21 08:33N 44°02' E 010°02'0 0.0
2014-Oct-21 07:33N 44°02' E 010°02'0 0.0
2014-Oct-21 06:33N 44°02' E 010°02'0 0.0
2014-Oct-21 05:33N 44°02' E 010°02'0 0.0
2014-Oct-21 04:33N 44°02' E 010°02'0 0.0
2014-Oct-21 03:33N 44°02' E 010°02'0 0.0
2014-Oct-21 02:33N 44°02' E 010°02'0 0.0
2014-Oct-21 01:33N 44°02' E 010°02'0 0.0
2014-Oct-21 00:33N 44°02' E 010°02'0 0.0
2014-Oct-20 23:33N 44°02' E 010°02'0 0.0
2014-Oct-20 22:33N 44°02' E 010°02'0 0.0
2014-Oct-20 21:33N 44°02' E 010°02'3 2.8
2014-Oct-20 20:33N 43°59' E 010°03'10 9.9
2014-Oct-20 19:33N 43°49' E 010°04'10 9.8
2014-Oct-20 18:33N 43°40' E 010°05'10 9.7
2014-Oct-20 17:33N 43°30' E 010°06'10 9.8
2014-Oct-20 16:33N 43°21' E 010°10'33 1.9
2014-Oct-19 23:22N 42°49' E 010°20'0 0.0
2014-Oct-19 22:25N 42°49' E 010°20'0 0.0
2014-Oct-19 21:33N 42°49' E 010°20'0 0.0
2014-Oct-19 20:33N 42°49' E 010°20'0 0.0
2014-Oct-19 19:33N 42°49' E 010°20'7 7.0
2014-Oct-19 18:33N 42°55' E 010°19'1010.5
2014-Oct-19 17:33N 43°06' E 010°17'1010.4
2014-Oct-19 16:33N 43°16' E 010°15'10 9.9
2014-Oct-19 15:33N 43°26' E 010°13'8 8.0
2014-Oct-19 14:33N 43°33' E 010°18'0 0.1
2014-Oct-19 12:32N 43°33' E 010°18'0 0.0
2014-Oct-19 11:26N 43°33' E 010°18'0 0.0
2014-Oct-19 10:05N 43°33' E 010°18'0 0.0
2014-Oct-19 09:20N 43°33' E 010°18'0 0.0
2014-Oct-19 08:26N 43°33' E 010°18'0 0.0
2014-Oct-19 07:29N 43°33' E 010°18'0 0.0
2014-Oct-19 06:23N 43°33' E 010°18'0 0.0
2014-Oct-19 05:23N 43°33' E 010°18'0 0.0
2014-Oct-19 04:32N 43°33' E 010°18'0 0.0
2014-Oct-19 03:32N 43°33' E 010°18'0 0.0
2014-Oct-19 02:26N 43°33' E 010°18'0 0.0
2014-Oct-19 01:32N 43°33' E 010°18'0 0.0
2014-Oct-19 00:32N 43°33' E 010°18'0 0.0
2014-Oct-18 23:32N 43°33' E 010°18'0 0.0
2014-Oct-18 22:32N 43°33' E 010°18'4 4.5
2014-Oct-18 21:34N 43°30' E 010°14'10 9.9
2014-Oct-18 20:33N 43°20' E 010°15'10 9.9
2014-Oct-18 19:33N 43°10' E 010°17'12 0.7
2014-Oct-18 01:33N 43°21' E 010°09'9 9.2
2014-Oct-18 00:33N 43°30' E 010°06'9 9.3
2014-Oct-17 23:33N 43°39' E 010°05'9 9.4
2014-Oct-17 22:33N 43°49' E 010°04'9 8.9
2014-Oct-17 21:33N 43°58' E 010°03'5 4.5
2014-Oct-17 20:32N 44°02' E 010°02'0 0.0
2014-Oct-17 19:29N 44°02' E 010°02'0 0.0
2014-Oct-17 18:29N 44°02' E 010°02'0 0.0
2014-Oct-17 17:32N 44°02' E 010°02'0 0.0
2014-Oct-17 16:29N 44°02' E 010°02'0 0.0
2014-Oct-17 15:32N 44°02' E 010°02'0 0.0
2014-Oct-17 14:32N 44°02' E 010°02'0 0.0
2014-Oct-17 13:26N 44°02' E 010°02'0 0.0
2014-Oct-17 12:32N 44°02' E 010°02'0 0.0
2014-Oct-17 11:26N 44°02' E 010°02'0 0.0
2014-Oct-17 10:32N 44°02' E 010°02'0 0.0
2014-Oct-17 09:32N 44°02' E 010°02'0 0.0
2014-Oct-17 08:32N 44°02' E 010°02'0 0.0
2014-Oct-17 07:32N 44°02' E 010°02'0 0.0
2014-Oct-17 06:29N 44°02' E 010°02'0 0.0
2014-Oct-17 05:32N 44°02' E 010°02'0 0.0
2014-Oct-17 04:32N 44°02' E 010°02'0 0.0
2014-Oct-17 03:32N 44°02' E 010°02'0 0.0
2014-Oct-17 02:32N 44°02' E 010°02'0 0.0
2014-Oct-17 01:32N 44°02' E 010°02'0 0.0
2014-Oct-17 00:32N 44°02' E 010°02'0 0.0
2014-Oct-16 23:32N 44°02' E 010°02'0 0.0
2014-Oct-16 22:32N 44°02' E 010°02'0 0.0
2014-Oct-16 21:29N 44°02' E 010°02'0 0.0
2014-Oct-16 20:32N 44°02' E 010°02'0 0.0
2014-Oct-16 19:32N 44°02' E 010°02'0 0.0
2014-Oct-16 18:32N 44°02' E 010°02'0 0.0
2014-Oct-16 17:32N 44°02' E 010°02'0 0.0
2014-Oct-16 16:29N 44°02' E 010°02'0 0.0
2014-Oct-16 15:32N 44°02' E 010°02'0 0.0
2014-Oct-16 14:32N 44°02' E 010°02'0 0.0
2014-Oct-16 13:29N 44°02' E 010°02'0 0.0
2014-Oct-16 12:32N 44°02' E 010°02'0 0.0
2014-Oct-16 11:32N 44°02' E 010°02'0 0.0
2014-Oct-16 10:32N 44°02' E 010°02'0 0.0
2014-Oct-16 09:32N 44°02' E 010°02'0 0.0
2014-Oct-16 08:32N 44°02' E 010°02'0 0.0
2014-Oct-16 07:32N 44°02' E 010°02'0 0.0
2014-Oct-16 06:32N 44°02' E 010°02'0 0.0
2014-Oct-16 05:32N 44°02' E 010°02'4 3.7
2014-Oct-16 04:33N 44°01' E 009°58'5 5.4
2014-Oct-16 03:33N 44°03' E 009°51'0 0.0
2014-Oct-16 02:33N 44°03' E 009°51'  

Dump ship's entire track history